Time;durP1;ratioP1;P1;durP2;ratioP2;P2;SDS_P1;SDS_P2;PMS_P1;PMS_P2;Temp;Humidity;BMP_temperature;BMP_pressure;BME280_temperature;BME280_humidity;BME280_pressure;Samples;Min_cycle;Max_cycle;Signal;HPM_P1;HPM_P2
2023/01/12 00:01:53;;;;;;;14.63;2.75;;;;;;;;;;5028757;28;20416;-69
2023/01/12 00:04:19;;;;;;;13.18;2.63;;;;;;;;;;5012575;28;20038;-69
2023/01/12 00:06:46;;;;;;;17.60;3.33;;;;;;;;;;5029277;28;20528;-69
2023/01/12 00:09:12;;;;;;;18.58;3.22;;;;;;;;;;5028819;28;20065;-69
2023/01/12 00:11:39;;;;;;;17.45;3.40;;;;;;;;;;5036679;28;20414;-69
2023/01/12 00:14:06;;;;;;;24.20;3.50;;;;;;;;;;5048797;28;20037;-69
2023/01/12 00:16:39;;;;;;;20.63;3.45;;;;;;;;;;5048596;28;20098;-69
2023/01/12 00:19:10;;;;;;;18.45;3.70;;;;;;;;;;5048999;28;20053;-69
2023/01/12 00:21:56;;;;;;;22.38;4.15;;;;;;;;;;5048760;28;20065;-69
2023/01/12 00:24:24;;;;;;;24.92;3.80;;;;;;;;;;5049495;28;20045;-69
2023/01/12 00:26:50;;;;;;;26.42;3.25;;;;;;;;;;5033021;28;20042;-69
2023/01/12 00:29:16;;;;;;;21.63;4.53;;;;;;;;;;5028752;28;20498;-69
2023/01/12 00:31:43;;;;;;;13.02;3.22;;;;;;;;;;5028527;28;20049;-69
2023/01/12 00:34:09;;;;;;;20.60;3.60;;;;;;;;;;5030234;28;20056;-69
2023/01/12 00:36:35;;;;;;;20.90;3.78;;;;;;;;;;5028948;28;20041;-69
2023/01/12 00:39:01;;;;;;;23.50;4.15;;;;;;;;;;5029776;28;20037;-69
2023/01/12 00:46:56;;;;;;;19.90;3.00;;;;;;;;;;5028569;28;20045;-69
2023/01/12 00:49:22;;;;;;;22.55;3.92;;;;;;;;;;5028715;28;20500;-69
2023/01/12 00:51:49;;;;;;;17.58;3.22;;;;;;;;;;5028858;28;20061;-69
2023/01/12 00:54:15;;;;;;;21.40;3.67;;;;;;;;;;5030987;28;20128;-69
2023/01/12 00:56:41;;;;;;;20.08;3.20;;;;;;;;;;5032661;28;20056;-69
2023/01/12 00:59:07;;;;;;;21.92;2.95;;;;;;;;;;5032659;28;20128;-69
2023/01/12 01:01:33;;;;;;;27.27;3.83;;;;;;;;;;5031899;28;20138;-69
2023/01/12 01:04:00;;;;;;;21.45;3.60;;;;;;;;;;5031902;28;20046;-69
2023/01/12 01:06:26;;;;;;;20.17;3.10;;;;;;;;;;5033617;28;20052;-69
2023/01/12 01:08:52;;;;;;;27.98;4.07;;;;;;;;;;5031659;28;20045;-69
2023/01/12 01:11:18;;;;;;;20.88;3.65;;;;;;;;;;5037323;28;20037;-69
2023/01/12 01:13:45;;;;;;;21.00;2.78;;;;;;;;;;5052121;28;20043;-69
2023/01/12 01:16:12;;;;;;;24.58;3.35;;;;;;;;;;5051552;28;20097;-69
2023/01/12 01:18:39;;;;;;;25.83;4.25;;;;;;;;;;5052001;28;20052;-69
2023/01/12 01:21:05;;;;;;;25.38;3.70;;;;;;;;;;5051689;28;20057;-69
2023/01/12 01:23:35;;;;;;;27.40;3.63;;;;;;;;;;5051391;28;20044;-69
2023/01/12 01:26:02;;;;;;;26.45;3.05;;;;;;;;;;5044285;28;20034;-69
2023/01/12 01:28:28;;;;;;;15.25;2.55;;;;;;;;;;5033162;28;20115;-69
2023/01/12 01:31:01;;;;;;;27.73;3.92;;;;;;;;;;5032712;28;20034;-69
2023/01/12 01:33:27;;;;;;;19.58;3.20;;;;;;;;;;5031567;28;20132;-69
2023/01/12 01:35:55;;;;;;;22.02;4.03;;;;;;;;;;5031815;28;20049;-69
2023/01/12 01:38:21;;;;;;;19.27;2.95;;;;;;;;;;5032485;28;20116;-70
2023/01/12 01:40:47;;;;;;;21.23;3.20;;;;;;;;;;5031339;28;20080;-69
2023/01/12 01:43:14;;;;;;;21.45;3.45;;;;;;;;;;5031522;28;20687;-69
2023/01/12 01:45:41;;;;;;;17.98;3.92;;;;;;;;;;5031232;28;20083;-69
2023/01/12 01:48:10;;;;;;;19.08;3.38;;;;;;;;;;5033165;28;20034;-69
2023/01/12 01:50:38;;;;;;;20.30;3.55;;;;;;;;;;5031692;28;20464;-69
2023/01/12 01:53:05;;;;;;;23.33;3.50;;;;;;;;;;5030923;28;20103;-69
2023/01/12 01:55:36;;;;;;;20.77;3.83;;;;;;;;;;5032496;28;20042;-69
2023/01/12 01:58:38;;;;;;;20.10;3.67;;;;;;;;;;5032564;28;20037;-69
2023/01/12 02:01:04;;;;;;;20.33;3.58;;;;;;;;;;4989897;28;20081;-69
2023/01/12 02:03:31;;;;;;;25.58;3.75;;;;;;;;;;5019135;28;20443;-69
2023/01/12 02:05:57;;;;;;;22.63;3.65;;;;;;;;;;5030325;28;20728;-69
2023/01/12 02:08:23;;;;;;;20.60;3.47;;;;;;;;;;5030886;28;20045;-69
2023/01/12 02:10:50;;;;;;;17.92;3.00;;;;;;;;;;5031691;28;20084;-69
2023/01/12 02:16:20;;;;;;;22.40;3.35;;;;;;;;;;5050553;28;20053;-69
2023/01/12 02:18:50;;;;;;;17.50;2.90;;;;;;;;;;5052595;28;20041;-69
2023/01/12 02:21:32;;;;;;;17.20;3.67;;;;;;;;;;5051561;28;20110;-69
2023/01/12 02:23:58;;;;;;;19.87;3.87;;;;;;;;;;5051992;28;20045;-69
2023/01/12 02:26:36;;;;;;;22.45;3.85;;;;;;;;;;5039751;28;20192;-69
2023/01/12 02:29:14;;;;;;;24.48;4.25;;;;;;;;;;5030582;28;20508;-69
2023/01/12 02:31:47;;;;;;;26.35;5.25;;;;;;;;;;5030542;28;20090;-69
2023/01/12 02:34:36;;;;;;;25.42;4.00;;;;;;;;;;5030851;28;20049;-69
2023/01/12 02:37:05;;;;;;;19.65;4.95;;;;;;;;;;5031346;28;20041;-69
2023/01/12 02:39:40;;;;;;;29.98;4.85;;;;;;;;;;5030866;28;20404;-69
2023/01/12 02:44:55;;;;;;;24.02;4.03;;;;;;;;;;5029912;28;20621;-69
2023/01/12 02:47:33;;;;;;;20.40;3.88;;;;;;;;;;5030173;28;20055;-69
2023/01/12 02:50:01;;;;;;;23.95;4.40;;;;;;;;;;5030377;28;20033;-69
2023/01/12 02:52:29;;;;;;;24.20;4.18;;;;;;;;;;5030950;28;20044;-70
2023/01/12 02:54:56;;;;;;;23.83;4.28;;;;;;;;;;5030410;28;20045;-69
2023/01/12 02:57:23;;;;;;;25.58;4.05;;;;;;;;;;5029888;28;20041;-69
2023/01/12 02:59:50;;;;;;;17.98;4.03;;;;;;;;;;5029868;28;20077;-69
2023/01/12 03:02:21;;;;;;;28.35;5.03;;;;;;;;;;5030020;28;20037;-69
2023/01/12 03:04:47;;;;;;;23.73;3.85;;;;;;;;;;5030039;28;20128;-69
2023/01/12 03:07:19;;;;;;;27.75;4.63;;;;;;;;;;5029500;28;20100;-69
2023/01/12 03:09:49;;;;;;;19.35;3.55;;;;;;;;;;5031525;28;20033;-69
2023/01/12 03:12:19;;;;;;;23.80;3.72;;;;;;;;;;5042346;28;20175;-69
2023/01/12 03:14:47;;;;;;;23.38;3.88;;;;;;;;;;5049628;28;20398;-69
2023/01/12 03:17:16;;;;;;;22.42;4.80;;;;;;;;;;5049418;28;20045;-69
2023/01/12 03:19:43;;;;;;;21.67;3.42;;;;;;;;;;5049257;28;20095;-69
2023/01/12 03:22:11;;;;;;;23.65;4.25;;;;;;;;;;5049460;28;20496;-69
2023/01/12 03:24:36;;;;;;;19.45;3.70;;;;;;;;;;5050869;28;20072;-69
2023/01/12 03:27:05;;;;;;;24.58;4.15;;;;;;;;;;5032501;28;20503;-69
2023/01/12 03:29:52;;;;;;;22.88;3.78;;;;;;;;;;5029481;28;20038;-69
2023/01/12 03:32:20;;;;;;;22.20;3.72;;;;;;;;;;5029603;28;20052;-69
2023/01/12 03:34:46;;;;;;;20.80;3.97;;;;;;;;;;5029514;28;20045;-69
2023/01/12 03:37:27;;;;;;;17.98;3.40;;;;;;;;;;5029165;28;20037;-69
2023/01/12 03:40:02;;;;;;;18.65;3.00;;;;;;;;;;5029624;28;20087;-69
2023/01/12 03:42:31;;;;;;;20.40;3.63;;;;;;;;;;5028857;28;20037;-69
2023/01/12 03:44:57;;;;;;;18.48;3.63;;;;;;;;;;5029310;28;20053;-69
2023/01/12 03:47:26;;;;;;;17.17;2.92;;;;;;;;;;5030991;28;20037;-69
2023/01/12 03:50:04;;;;;;;19.08;3.42;;;;;;;;;;5029208;28;20029;-69
2023/01/12 03:52:34;;;;;;;16.48;2.88;;;;;;;;;;5030709;28;20488;-69
2023/01/12 03:55:01;;;;;;;9.55;2.42;;;;;;;;;;5029469;28;20049;-69
2023/01/12 03:57:27;;;;;;;13.77;2.95;;;;;;;;;;5029016;28;20049;-69
2023/01/12 03:59:54;;;;;;;16.73;3.30;;;;;;;;;;5029206;28;20045;-69
2023/01/12 04:02:21;;;;;;;12.55;2.75;;;;;;;;;;5029338;28;20491;-69
2023/01/12 04:04:47;;;;;;;14.48;2.70;;;;;;;;;;5028803;28;20033;-69
2023/01/12 04:07:13;;;;;;;14.63;2.70;;;;;;;;;;5029424;28;20511;-69
2023/01/12 04:09:39;;;;;;;10.43;2.70;;;;;;;;;;5030484;28;20040;-69
2023/01/12 04:12:11;;;;;;;14.30;3.30;;;;;;;;;;5040358;28;20033;-69
2023/01/12 04:14:41;;;;;;;11.65;3.22;;;;;;;;;;5048928;28;20179;-69
2023/01/12 04:17:08;;;;;;;12.32;3.13;;;;;;;;;;5049308;28;20882;-68
2023/01/12 04:19:34;;;;;;;10.00;2.85;;;;;;;;;;5048606;28;20049;-68
2023/01/12 04:24:45;;;;;;;13.75;2.72;;;;;;;;;;5048817;28;20049;-68
2023/01/12 04:27:12;;;;;;;9.02;2.50;;;;;;;;;;5013569;28;20091;-68
2023/01/12 04:29:38;;;;;;;6.97;2.33;;;;;;;;;;5032451;28;20688;-68
2023/01/12 04:32:04;;;;;;;11.38;2.42;;;;;;;;;;5033295;28;20124;-68
2023/01/12 04:34:30;;;;;;;11.40;2.05;;;;;;;;;;5032753;28;20518;-68
2023/01/12 04:36:56;;;;;;;4.50;1.70;;;;;;;;;;5032970;28;20045;-68
2023/01/12 04:39:23;;;;;;;10.38;2.03;;;;;;;;;;5033195;28;20670;-68
2023/01/12 04:41:49;;;;;;;7.60;2.00;;;;;;;;;;5032345;28;20115;-68
2023/01/12 04:44:15;;;;;;;11.50;2.33;;;;;;;;;;5032524;28;20721;-68
2023/01/12 04:46:41;;;;;;;7.85;2.47;;;;;;;;;;5032748;28;20041;-68
2023/01/12 04:49:07;;;;;;;11.02;2.67;;;;;;;;;;5033747;28;20092;-68
2023/01/12 04:51:33;;;;;;;8.15;2.53;;;;;;;;;;5032521;28;20721;-68
2023/01/12 04:53:59;;;;;;;10.80;3.35;;;;;;;;;;5032584;28;20045;-68
2023/01/12 04:56:25;;;;;;;11.25;3.10;;;;;;;;;;5032423;28;20555;-68
2023/01/12 04:58:58;;;;;;;10.40;2.70;;;;;;;;;;5032710;28;20037;-68
2023/01/12 05:01:24;;;;;;;6.85;2.40;;;;;;;;;;5033740;28;20491;-68
2023/01/12 05:03:50;;;;;;;8.95;2.85;;;;;;;;;;5033344;28;20041;-68
2023/01/12 05:06:16;;;;;;;4.55;2.03;;;;;;;;;;5033699;28;20095;-68
2023/01/12 05:11:27;;;;;;;8.15;2.10;;;;;;;;;;5039203;28;20434;-68
2023/01/12 05:13:54;;;;;;;7.88;2.22;;;;;;;;;;5053030;28;20049;-68
2023/01/12 05:16:20;;;;;;;7.53;1.80;;;;;;;;;;5051994;28;20182;-68
2023/01/12 05:18:46;;;;;;;6.40;2.20;;;;;;;;;;5035341;28;20529;-68
2023/01/12 05:21:13;;;;;;;8.27;2.10;;;;;;;;;;5052963;28;20056;-68
2023/01/12 05:23:39;;;;;;;4.55;1.80;;;;;;;;;;5051471;28;20053;-69
2023/01/12 05:26:06;;;;;;;4.45;2.05;;;;;;;;;;5043437;28;20045;-69
2023/01/12 05:28:32;;;;;;;7.35;1.70;;;;;;;;;;5031763;28;20088;-69
2023/01/12 05:31:02;;;;;;;6.25;1.60;;;;;;;;;;5031873;28;20077;-69
2023/01/12 05:33:28;;;;;;;7.22;1.80;;;;;;;;;;5031229;28;20176;-69
2023/01/12 05:35:54;;;;;;;2.90;1.17;;;;;;;;;;5033372;28;20068;-69
2023/01/12 05:38:20;;;;;;;5.18;1.45;;;;;;;;;;5031353;28;20080;-69
2023/01/12 05:40:46;;;;;;;7.88;1.50;;;;;;;;;;5031450;28;20045;-69
2023/01/12 05:46:02;;;;;;;4.88;1.35;;;;;;;;;;5032986;28;20081;-69
2023/01/12 05:48:29;;;;;;;4.22;1.50;;;;;;;;;;5030981;28;20119;-69
2023/01/12 05:50:58;;;;;;;7.03;1.75;;;;;;;;;;5031449;28;20034;-69
2023/01/12 05:53:24;;;;;;;7.13;1.75;;;;;;;;;;5031071;28;20045;-69
2023/01/12 05:55:50;;;;;;;8.25;1.73;;;;;;;;;;5031323;28;20128;-69
2023/01/12 05:58:16;;;;;;;8.30;1.88;;;;;;;;;;5031284;28;20060;-69
2023/01/12 06:00:42;;;;;;;8.43;1.42;;;;;;;;;;5031007;28;20127;-69
2023/01/12 06:03:08;;;;;;;9.52;1.83;;;;;;;;;;5030753;28;20053;-68
2023/01/12 06:05:34;;;;;;;5.20;1.92;;;;;;;;;;5032668;28;20037;-68
2023/01/12 06:08:01;;;;;;;7.60;1.48;;;;;;;;;;5032466;28;20041;-68
2023/01/12 06:10:27;;;;;;;8.60;1.23;;;;;;;;;;5032184;28;20037;-68
2023/01/12 06:15:38;;;;;;;4.20;1.13;;;;;;;;;;5052205;28;20041;-68
2023/01/12 06:18:05;;;;;;;10.63;1.77;;;;;;;;;;5051431;28;20052;-68
2023/01/12 06:20:31;;;;;;;4.70;1.38;;;;;;;;;;5052060;28;20108;-68
2023/01/12 06:23:01;;;;;;;9.27;1.40;;;;;;;;;;5050482;28;20037;-68
2023/01/12 06:25:28;;;;;;;6.63;1.33;;;;;;;;;;5047577;28;20033;-68
2023/01/12 06:27:55;;;;;;;9.43;1.13;;;;;;;;;;5031038;28;20125;-66
2023/01/12 06:30:21;;;;;;;6.32;1.20;;;;;;;;;;5030861;28;20045;-66
2023/01/12 06:32:47;;;;;;;5.30;1.38;;;;;;;;;;5031034;28;20052;-66
2023/01/12 06:35:13;;;;;;;5.15;1.10;;;;;;;;;;5031151;28;20046;-66
2023/01/12 06:37:39;;;;;;;4.28;1.50;;;;;;;;;;5031831;28;20373;-66
2023/01/12 06:40:05;;;;;;;3.70;1.13;;;;;;;;;;5031427;28;20056;-66
2023/01/12 06:42:32;;;;;;;4.20;1.33;;;;;;;;;;5031149;28;20037;-66
2023/01/12 06:44:59;;;;;;;3.60;1.10;;;;;;;;;;5031223;28;20149;-67
2023/01/12 06:47:26;;;;;;;6.32;1.35;;;;;;;;;;5030380;28;20034;-66
2023/01/12 06:49:52;;;;;;;1.92;1.02;;;;;;;;;;5030697;28;20076;-66
2023/01/12 06:52:23;;;;;;;1.52;1.20;;;;;;;;;;5031000;28;20045;-66
2023/01/12 06:54:49;;;;;;;4.68;1.35;;;;;;;;;;5030826;28;20072;-66
2023/01/12 06:57:15;;;;;;;3.80;1.50;;;;;;;;;;5031225;28;20476;-66
2023/01/12 06:59:41;;;;;;;2.10;1.48;;;;;;;;;;5031159;28;20064;-66
2023/01/12 07:02:14;;;;;;;2.58;1.20;;;;;;;;;;5031330;28;20412;-66
2023/01/12 07:04:40;;;;;;;2.83;1.58;;;;;;;;;;5030446;28;20072;-66
2023/01/12 07:07:07;;;;;;;2.63;1.40;;;;;;;;;;5031519;28;20465;-66
2023/01/12 07:09:33;;;;;;;3.30;1.70;;;;;;;;;;5031074;28;20042;-66
2023/01/12 07:11:59;;;;;;;2.65;1.65;;;;;;;;;;5041563;28;20083;-66
2023/01/12 07:14:25;;;;;;;4.18;1.83;;;;;;;;;;5036456;28;20038;-67
2023/01/12 07:16:51;;;;;;;3.67;1.40;;;;;;;;;;5011557;28;20495;-67
2023/01/12 07:19:18;;;;;;;3.88;1.40;;;;;;;;;;5025025;28;20041;-67
2023/01/12 07:21:44;;;;;;;4.05;1.63;;;;;;;;;;5030986;28;20065;-67
2023/01/12 07:24:10;;;;;;;2.33;1.65;;;;;;;;;;5031406;28;20052;-67
2023/01/12 07:26:36;;;;;;;4.43;2.20;;;;;;;;;;5030876;28;20476;-68
2023/01/12 07:29:02;;;;;;;10.88;2.35;;;;;;;;;;5029932;28;20045;-67
2023/01/12 07:31:28;;;;;;;3.17;2.38;;;;;;;;;;5021400;28;20086;-67
2023/01/12 07:33:55;;;;;;;4.80;2.63;;;;;;;;;;5027507;28;20049;-67
2023/01/12 07:36:21;;;;;;;2.80;2.40;;;;;;;;;;5023082;28;20045;-67
2023/01/12 07:38:47;;;;;;;4.65;2.72;;;;;;;;;;5027384;28;20037;-66
2023/01/12 07:43:58;;;;;;;6.47;3.40;;;;;;;;;;5025609;28;20712;-68
2023/01/12 07:46:24;;;;;;;4.10;3.33;;;;;;;;;;5026064;28;20056;-67
2023/01/12 07:48:50;;;;;;;5.38;3.45;;;;;;;;;;5028473;28;20041;-68
2023/01/12 07:51:16;;;;;;;8.85;3.88;;;;;;;;;;5029207;28;20534;-67
2023/01/12 07:53:42;;;;;;;5.88;3.55;;;;;;;;;;5027485;28;21232;-66
2023/01/12 07:56:09;;;;;;;8.10;3.28;;;;;;;;;;5030368;28;20056;-68
2023/01/12 07:58:36;;;;;;;3.92;3.45;;;;;;;;;;5029875;28;20068;-67
2023/01/12 08:01:02;;;;;;;7.78;3.15;;;;;;;;;;5014699;28;20046;-67
2023/01/12 08:03:28;;;;;;;7.88;3.80;;;;;;;;;;5022542;28;20049;-69
2023/01/12 08:05:56;;;;;;;5.18;3.47;;;;;;;;;;5026392;28;20092;-68
2023/01/12 08:08:22;;;;;;;8.52;3.38;;;;;;;;;;5030693;28;20041;-69
2023/01/12 08:10:49;;;;;;;14.50;3.85;;;;;;;;;;5019908;28;20176;-67
2023/01/12 08:13:15;;;;;;;13.93;4.38;;;;;;;;;;5009888;28;20050;-68
2023/01/12 08:15:44;;;;;;;14.93;4.32;;;;;;;;;;5023735;28;20112;-68
2023/01/12 08:18:17;;;;;;;17.30;4.00;;;;;;;;;;5021248;28;20380;-67
2023/01/12 08:20:43;;;;;;;;;;;;;;;;;;5023054;28;20119;-67
2023/01/12 08:23:29;;;;;;;17.83;3.72;;;;;;;;;;5023599;28;19921;-67
2023/01/12 08:26:00;;;;;;;20.35;3.72;;;;;;;;;;5025010;28;20107;-67
2023/01/12 08:28:28;;;;;;;27.05;4.60;;;;;;;;;;5029824;28;20118;-67
2023/01/12 08:30:54;;;;;;;27.75;4.03;;;;;;;;;;5029994;28;20175;-67
2023/01/12 08:33:21;;;;;;;27.20;3.58;;;;;;;;;;5027316;28;20154;-67
2023/01/12 08:35:47;;;;;;;37.30;4.78;;;;;;;;;;5028366;28;20056;-66
2023/01/12 08:38:13;;;;;;;33.15;5.20;;;;;;;;;;5030110;28;20671;-66
2023/01/12 08:46:09;;;;;;;24.48;3.92;;;;;;;;;;5028931;28;20045;-66
2023/01/12 08:48:36;;;;;;;43.00;5.78;;;;;;;;;;5029816;28;20113;-66
2023/01/12 08:51:02;;;;;;;32.63;3.75;;;;;;;;;;5029784;28;20121;-67
2023/01/12 08:53:28;;;;;;;32.70;4.70;;;;;;;;;;5028732;28;20057;-67
2023/01/12 08:55:54;;;;;;;36.20;4.82;;;;;;;;;;5026227;28;20071;-68
2023/01/12 08:58:20;;;;;;;40.92;4.70;;;;;;;;;;5028618;28;20527;-67
2023/01/12 09:00:46;;;;;;;23.80;3.47;;;;;;;;;;5029051;28;20080;-66
2023/01/12 09:03:12;;;;;;;34.42;4.95;;;;;;;;;;5029100;28;20052;-67
2023/01/12 09:05:38;;;;;;;26.60;4.05;;;;;;;;;;5029275;28;20801;-67
2023/01/12 09:08:05;;;;;;;38.75;5.10;;;;;;;;;;5029352;28;20545;-67
2023/01/12 09:10:31;;;;;;;40.70;5.35;;;;;;;;;;5029335;28;20049;-66
2023/01/12 09:12:57;;;;;;;39.72;4.97;;;;;;;;;;5047393;28;20048;-67
2023/01/12 09:15:23;;;;;;;37.47;4.63;;;;;;;;;;5034178;28;20044;-67
2023/01/12 09:17:55;;;;;;;33.10;4.53;;;;;;;;;;5033060;28;20037;-67
2023/01/12 09:20:21;;;;;;;33.13;3.55;;;;;;;;;;5015488;28;20054;-67
2023/01/12 09:22:47;;;;;;;39.03;4.43;;;;;;;;;;5017070;28;20065;-67
2023/01/12 09:25:13;;;;;;;38.00;4.20;;;;;;;;;;5029968;28;20049;-66
2023/01/12 09:27:39;;;;;;;41.05;4.20;;;;;;;;;;5031176;28;20545;-66
2023/01/12 09:30:06;;;;;;;26.20;3.65;;;;;;;;;;5032703;28;20113;-67
2023/01/12 09:32:32;;;;;;;30.00;4.03;;;;;;;;;;5013184;28;20057;-66
2023/01/12 09:34:58;;;;;;;27.40;3.63;;;;;;;;;;5017041;28;20052;-67
2023/01/12 09:37:25;;;;;;;25.40;4.35;;;;;;;;;;5033127;28;20084;-65
2023/01/12 09:39:51;;;;;;;28.83;3.85;;;;;;;;;;5032227;28;20041;-65
2023/01/12 09:48:11;;;;;;;30.00;4.07;;;;;;;;;;5013675;28;20116;-66
2023/01/12 09:50:41;;;;;;;30.38;4.60;;;;;;;;;;5014104;28;20038;-66
2023/01/12 09:53:20;;;;;;;22.30;3.33;;;;;;;;;;5031782;28;20460;-65
2023/01/12 09:55:46;;;;;;;31.13;5.03;;;;;;;;;;5031406;28;20045;-66
2023/01/12 09:58:31;;;;;;;33.15;4.10;;;;;;;;;;5032526;28;20033;-66
2023/01/12 10:00:58;;;;;;;25.95;3.75;;;;;;;;;;5032033;28;20044;-66
2023/01/12 10:03:34;;;;;;;27.75;4.22;;;;;;;;;;5024215;28;20088;-64
2023/01/12 10:06:00;;;;;;;32.97;3.88;;;;;;;;;;5011915;28;20139;-63
2023/01/12 10:08:26;;;;;;;31.08;5.05;;;;;;;;;;5011538;28;20046;-64
2023/01/12 10:11:01;;;;;;;32.22;4.53;;;;;;;;;;5030794;28;20056;-68
2023/01/12 10:13:33;;;;;;;21.90;3.42;;;;;;;;;;5051583;28;20079;-67
2023/01/12 10:16:02;;;;;;;33.13;4.63;;;;;;;;;;5038419;28;20033;-67
2023/01/12 10:18:35;;;;;;;27.50;3.97;;;;;;;;;;5030719;28;20120;-66
2023/01/12 10:21:02;;;;;;;24.30;3.30;;;;;;;;;;5031473;28;20132;-68
2023/01/12 10:23:28;;;;;;;23.90;3.83;;;;;;;;;;5030734;28;20403;-67
2023/01/12 10:26:02;;;;;;;35.40;3.88;;;;;;;;;;5022315;28;20041;-67
2023/01/12 10:28:30;;;;;;;17.33;3.30;;;;;;;;;;5011434;28;20050;-66
2023/01/12 10:30:57;;;;;;;23.88;4.00;;;;;;;;;;5011107;28;20037;-67
2023/01/12 10:33:29;;;;;;;18.80;3.17;;;;;;;;;;5011616;28;20041;-65
2023/01/12 10:36:03;;;;;;;21.70;4.05;;;;;;;;;;5020533;28;20045;-65
2023/01/12 10:38:32;;;;;;;33.63;3.33;;;;;;;;;;5030708;28;20387;-67
2023/01/12 10:41:28;;;;;;;17.90;3.35;;;;;;;;;;5030980;28;20053;-66
2023/01/12 10:43:59;;;;;;;30.30;4.57;;;;;;;;;;5015247;28;20129;-67
2023/01/12 10:46:34;;;;;;;22.63;3.15;;;;;;;;;;5010500;28;20042;-66
2023/01/12 10:49:13;;;;;;;20.38;3.05;;;;;;;;;;5011404;28;20385;-65
2023/01/12 10:51:48;;;;;;;22.42;4.00;;;;;;;;;;5011000;28;20044;-65
2023/01/12 10:54:33;;;;;;;18.23;2.85;;;;;;;;;;5011182;28;20057;-66
2023/01/12 10:57:02;;;;;;;26.20;3.60;;;;;;;;;;5028588;28;20073;-67
2023/01/12 10:59:32;;;;;;;23.17;3.35;;;;;;;;;;5030542;28;20592;-66
2023/01/12 11:02:08;;;;;;;29.30;3.90;;;;;;;;;;5046348;28;20540;-68
2023/01/12 11:04:44;;;;;;;25.67;3.90;;;;;;;;;;5019733;28;20149;-67
2023/01/12 11:07:12;;;;;;;22.98;3.63;;;;;;;;;;5010015;28;20042;-68
2023/01/12 11:09:39;;;;;;;26.63;4.05;;;;;;;;;;5020832;28;20037;-66
2023/01/12 11:12:26;;;;;;;23.80;4.13;;;;;;;;;;5041710;28;20569;-67
2023/01/12 11:15:00;;;;;;;30.50;3.80;;;;;;;;;;5048745;28;20052;-66
2023/01/12 11:17:48;;;;;;;26.88;3.70;;;;;;;;;;5030154;28;20508;-66
2023/01/12 11:20:18;;;;;;;29.02;4.18;;;;;;;;;;5030099;28;20057;-66
2023/01/12 11:22:44;;;;;;;19.55;3.78;;;;;;;;;;5029456;28;20103;-66
2023/01/12 11:25:20;;;;;;;24.73;3.90;;;;;;;;;;5026620;28;20050;-66
2023/01/12 11:27:52;;;;;;;24.17;3.80;;;;;;;;;;5018202;28;20046;-64
2023/01/12 11:30:27;;;;;;;30.73;3.75;;;;;;;;;;5030296;28;20084;-66
2023/01/12 11:33:07;;;;;;;22.63;4.03;;;;;;;;;;5029804;28;20128;-64
2023/01/12 11:35:52;;;;;;;22.73;3.83;;;;;;;;;;5030172;28;20052;-65
2023/01/12 11:38:20;;;;;;;26.90;3.95;;;;;;;;;;5029442;28;20128;-64
2023/01/12 11:40:47;;;;;;;25.50;3.88;;;;;;;;;;5029537;28;20087;-64
2023/01/12 11:46:08;;;;;;;22.60;4.47;;;;;;;;;;5030027;28;20045;-61
2023/01/12 11:48:42;;;;;;;26.40;3.92;;;;;;;;;;5022860;28;20426;-62
2023/01/12 11:51:10;;;;;;;23.02;3.92;;;;;;;;;;5025880;28;20152;-67
2023/01/12 11:53:36;;;;;;;28.27;3.40;;;;;;;;;;5028123;28;20056;-68
2023/01/12 11:56:08;;;;;;;22.02;4.28;;;;;;;;;;5022912;28;20048;-67
2023/01/12 11:58:43;;;;;;;18.52;3.20;;;;;;;;;;5026366;28;20049;-67
2023/01/12 12:01:21;;;;;;;24.10;3.40;;;;;;;;;;5028528;28;20149;-66
2023/01/12 12:03:58;;;;;;;24.90;3.78;;;;;;;;;;5015527;28;20049;-66
2023/01/12 12:06:33;;;;;;;17.98;3.90;;;;;;;;;;5029162;28;20047;-66
2023/01/12 12:09:11;;;;;;;24.23;3.47;;;;;;;;;;5027660;28;20041;-66
2023/01/12 12:11:44;;;;;;;22.80;3.65;;;;;;;;;;5023507;28;20358;-66
2023/01/12 12:14:19;;;;;;;20.08;3.80;;;;;;;;;;5016886;28;20046;-66
2023/01/12 12:16:45;;;;;;;19.50;3.75;;;;;;;;;;5029874;28;20069;-67
2023/01/12 12:19:31;;;;;;;19.05;3.53;;;;;;;;;;5027172;28;20598;-67
2023/01/12 12:22:16;;;;;;;22.70;3.70;;;;;;;;;;5027583;28;20061;-67
2023/01/12 12:25:01;;;;;;;20.85;3.58;;;;;;;;;;5025653;28;20029;-65
2023/01/12 12:27:36;;;;;;;20.67;3.00;;;;;;;;;;5022043;28;20064;-66
2023/01/12 12:30:21;;;;;;;20.73;3.22;;;;;;;;;;5028421;28;20397;-67
2023/01/12 12:33:13;;;;;;;28.33;4.35;;;;;;;;;;5027916;28;20037;-67
2023/01/12 12:35:48;;;;;;;22.05;3.95;;;;;;;;;;5012262;28;20128;-67
2023/01/12 12:38:25;;;;;;;19.60;3.58;;;;;;;;;;5027645;28;20527;-68
2023/01/12 12:47:03;;;;;;;23.50;3.58;;;;;;;;;;5025978;28;20290;-68
2023/01/12 12:49:31;;;;;;;25.77;3.92;;;;;;;;;;5028724;28;20632;-67
2023/01/12 12:51:58;;;;;;;27.73;3.65;;;;;;;;;;5030794;28;20065;-67
2023/01/12 12:54:25;;;;;;;22.95;4.18;;;;;;;;;;5030976;28;20045;-68
2023/01/12 12:56:52;;;;;;;26.45;4.35;;;;;;;;;;5029689;28;20110;-67
2023/01/12 12:59:33;;;;;;;27.25;3.63;;;;;;;;;;5023816;28;20547;-67
2023/01/12 13:02:00;;;;;;;26.00;3.40;;;;;;;;;;5018469;28;20124;-67
2023/01/12 13:04:41;;;;;;;28.35;3.58;;;;;;;;;;5024228;28;20128;-67
2023/01/12 13:07:12;;;;;;;25.73;4.40;;;;;;;;;;5032204;28;20037;-67
2023/01/12 13:09:39;;;;;;;22.80;3.63;;;;;;;;;;5022551;28;20044;-67
2023/01/12 13:12:05;;;;;;;13.40;3.45;;;;;;;;;;5032929;28;20468;-68
2023/01/12 13:14:36;;;;;;;20.98;4.10;;;;;;;;;;5030708;28;20045;-68
2023/01/12 13:17:20;;;;;;;23.67;4.50;;;;;;;;;;5029629;28;20491;-68
2023/01/12 13:19:50;;;;;;;26.95;4.30;;;;;;;;;;5028180;28;20053;-67
2023/01/12 13:22:31;;;;;;;27.10;4.70;;;;;;;;;;5031481;28;20449;-67
2023/01/12 13:25:02;;;;;;;27.13;3.85;;;;;;;;;;5020041;28;20042;-67
2023/01/12 13:27:48;;;;;;;27.45;4.30;;;;;;;;;;5032311;28;20046;-66
2023/01/12 13:30:20;;;;;;;29.23;4.10;;;;;;;;;;5032745;28;20041;-67
2023/01/12 13:33:04;;;;;;;22.73;3.40;;;;;;;;;;5032002;28;20038;-67
2023/01/12 13:35:33;;;;;;;20.17;3.55;;;;;;;;;;5030910;28;20076;-67
2023/01/12 13:38:07;;;;;;;20.90;3.28;;;;;;;;;;5032651;28;20128;-67
2023/01/12 13:40:33;;;;;;;20.73;4.47;;;;;;;;;;5032173;28;20037;-67
2023/01/12 13:43:18;;;;;;;16.17;3.35;;;;;;;;;;5031677;28;20041;-68
2023/01/12 13:46:04;;;;;;;20.17;3.10;;;;;;;;;;5027896;28;20481;-68
2023/01/12 13:48:34;;;;;;;17.02;3.42;;;;;;;;;;5021485;28;20045;-68
2023/01/12 13:51:06;;;;;;;20.58;2.83;;;;;;;;;;5032299;28;20045;-66
2023/01/12 13:53:32;;;;;;;28.65;4.05;;;;;;;;;;5030791;28;20107;-67
2023/01/12 13:56:00;;;;;;;20.27;3.30;;;;;;;;;;5030615;28;20446;-68
2023/01/12 13:58:27;;;;;;;14.60;2.53;;;;;;;;;;5030271;28;20049;-69
2023/01/12 14:00:57;;;;;;;21.27;3.25;;;;;;;;;;5029262;28;20049;-68
2023/01/12 14:03:47;;;;;;;19.42;3.08;;;;;;;;;;5029971;28;20041;-69
2023/01/12 14:06:24;;;;;;;16.70;2.83;;;;;;;;;;5025303;28;20136;-69
2023/01/12 14:08:50;;;;;;;18.83;2.90;;;;;;;;;;5021998;28;20124;-66
2023/01/12 14:11:25;;;;;;;16.27;2.85;;;;;;;;;;5036351;28;20124;-68
2023/01/12 14:17:47;;;;;;;17.50;2.88;;;;;;;;;;5029657;28;20041;-69
2023/01/12 14:19:39;;;;;;;19.38;2.83;;;;;;;;;;5013490;28;20603;-67
2023/01/12 14:22:05;;;;;;;14.70;2.47;;;;;;;;;;5017265;28;20049;-67
2023/01/12 14:24:31;;;;;;;13.20;2.30;;;;;;;;;;5030634;28;20503;-68
2023/01/12 14:26:57;;;;;;;15.27;3.42;;;;;;;;;;5031632;28;20052;-69
2023/01/12 14:29:23;;;;;;;15.60;2.13;;;;;;;;;;5031186;28;20041;-69
2023/01/12 14:31:51;;;;;;;12.15;2.55;;;;;;;;;;5031622;28;20672;-69
2023/01/12 14:34:31;;;;;;;10.63;2.38;;;;;;;;;;5029128;28;20045;-69
2023/01/12 14:36:58;;;;;;;9.15;2.00;;;;;;;;;;5030073;28;20045;-70
2023/01/12 14:39:26;;;;;;;8.90;2.25;;;;;;;;;;5029784;28;20052;-69
2023/01/12 14:47:43;;;;;;;6.50;1.83;;;;;;;;;;5029934;28;20052;-68
2023/01/12 14:50:12;;;;;;;5.90;2.00;;;;;;;;;;5011362;28;20438;-68
2023/01/12 14:52:39;;;;;;;6.35;2.03;;;;;;;;;;5019969;28;20037;-68
2023/01/12 14:55:15;;;;;;;4.18;1.27;;;;;;;;;;5030140;28;20041;-68
2023/01/12 14:57:41;;;;;;;3.92;1.35;;;;;;;;;;5031492;28;20497;-68
2023/01/12 15:00:18;;;;;;;5.50;1.83;;;;;;;;;;5042629;28;20065;-68
2023/01/12 15:02:48;;;;;;;4.18;1.65;;;;;;;;;;5011442;28;20050;-68
2023/01/12 15:05:24;;;;;;;4.55;1.60;;;;;;;;;;5024180;28;20476;-68
2023/01/12 15:07:55;;;;;;;1.77;1.42;;;;;;;;;;5029882;28;20056;-68
2023/01/12 15:10:35;;;;;;;5.22;1.77;;;;;;;;;;5030685;28;20045;-68
2023/01/12 15:13:20;;;;;;;4.68;1.80;;;;;;;;;;5026169;28;20045;-68
2023/01/12 15:26:45;;;;;;;2.63;1.60;;;;;;;;;;5030675;28;20038;-68
2023/01/12 15:29:11;;;;;;;1.80;1.13;;;;;;;;;;5030983;28;20042;-68
2023/01/12 15:31:37;;;;;;;2.22;1.00;;;;;;;;;;5030832;28;20087;-69
2023/01/12 15:34:04;;;;;;;1.73;0.93;;;;;;;;;;5030290;28;20038;-67
2023/01/12 15:36:30;;;;;;;3.58;1.38;;;;;;;;;;5024159;28;20049;-68
2023/01/12 15:38:56;;;;;;;1.67;1.08;;;;;;;;;;5011773;28;20042;-68
2023/01/12 15:44:12;;;;;;;1.50;1.40;;;;;;;;;;5011446;28;20049;-68
2023/01/12 15:46:39;;;;;;;4.38;2.00;;;;;;;;;;5009517;28;20049;-68
2023/01/12 15:49:05;;;;;;;2.88;2.10;;;;;;;;;;5021167;28;20526;-68
2023/01/12 15:51:31;;;;;;;2.50;1.90;;;;;;;;;;5030071;28;20048;-68
2023/01/12 15:53:58;;;;;;;3.40;2.60;;;;;;;;;;5030549;28;20043;-68
2023/01/12 15:56:24;;;;;;;2.15;1.40;;;;;;;;;;5028397;28;20114;-68